createdAt,value
2023-03-26T00:04:28.503Z,100934.97
2023-03-26T00:09:30.944Z,100923.25
2023-03-26T00:14:33.681Z,100916.63
2023-03-26T00:19:36.129Z,100915.13
2023-03-26T00:24:39.546Z,100916.44
2023-03-26T00:29:41.908Z,100905.72
2023-03-26T00:34:46.493Z,100905.84
2023-03-26T00:39:49.578Z,100902.75
2023-03-26T00:44:57.975Z,100899.41
2023-03-26T00:50:00.903Z,100902.03
2023-03-26T00:55:03.502Z,100901.56
2023-03-26T01:00:17.109Z,100903.22
2023-03-26T01:06:18.075Z,100900.22
2023-03-26T01:11:24.244Z,100897.13
2023-03-26T01:16:52.837Z,100905.16
2023-03-26T01:21:55.605Z,100900.34
2023-03-26T01:27:08.144Z,100903.75
2023-03-26T01:32:10.506Z,100893.63
2023-03-26T01:37:27.458Z,100892.59
2023-03-26T01:42:37.834Z,100904.56
2023-03-26T01:47:42.720Z,100896.09
2023-03-26T01:52:45.207Z,100898.16
2023-03-26T01:58:05.952Z,100889.31
2023-03-26T02:03:21.809Z,100892.91
2023-03-26T02:08:36.127Z,100893.00
2023-03-26T02:13:41.310Z,100897.63
2023-03-26T02:18:45.914Z,100889.81
2023-03-26T02:23:50.919Z,100895.47
2023-03-26T02:28:53.726Z,100890.94
2023-03-26T02:33:56.954Z,100886.59
2023-03-26T02:39:02.479Z,100884.53
2023-03-26T02:44:08.746Z,100883.19
2023-03-26T02:49:31.400Z,100880.63
2023-03-26T02:54:35.514Z,100892.50
2023-03-26T03:00:09.284Z,100888.13
2023-03-26T03:05:12.003Z,100899.88
2023-03-26T03:10:15.822Z,100886.88
2023-03-26T03:15:54.236Z,100873.00
2023-03-26T03:20:56.999Z,100869.38
2023-03-26T03:25:59.589Z,100863.66
2023-03-26T03:31:02.226Z,100853.44
2023-03-26T03:36:19.970Z,100848.41
2023-03-26T03:41:26.679Z,100851.88
2023-03-26T03:46:29.317Z,100836.34
2023-03-26T03:51:31.847Z,100846.16
2023-03-26T03:56:38.227Z,100837.91
2023-03-26T04:02:03.627Z,100839.16
2023-03-26T04:07:11.816Z,100843.38
2023-03-26T04:12:34.136Z,100850.06
2023-03-26T04:17:42.922Z,100847.44
2023-03-26T04:22:47.572Z,100835.91
2023-03-26T04:27:52.260Z,100842.97
2023-03-26T04:33:16.649Z,100838.63
2023-03-26T04:38:19.961Z,100837.00
2023-03-26T04:43:27.050Z,100831.13
2023-03-26T04:48:52.204Z,100836.47
2023-03-26T04:54:00.782Z,100829.34
2023-03-26T04:59:30.277Z,100838.31
2023-03-26T05:04:39.845Z,100834.31
2023-03-26T05:09:43.857Z,100834.00
2023-03-26T05:14:51.037Z,100832.28
2023-03-26T05:20:04.044Z,100831.19
2023-03-26T05:25:07.861Z,100831.22
2023-03-26T05:30:17.025Z,100835.38
2023-03-26T05:35:23.081Z,100829.13
2023-03-26T05:40:25.629Z,100829.94
2023-03-26T05:45:32.037Z,100840.38
2023-03-26T05:50:39.759Z,100818.34
2023-03-26T05:55:47.485Z,100827.66
2023-03-26T06:01:10.939Z,100814.97
2023-03-26T06:06:36.054Z,100812.63
2023-03-26T06:11:39.044Z,100816.63
2023-03-26T06:16:42.708Z,100822.16
2023-03-26T06:21:53.917Z,100816.97
2023-03-26T06:27:00.154Z,100798.63
2023-03-26T06:32:18.947Z,100804.75
2023-03-26T06:37:33.274Z,100780.31
2023-03-26T06:43:08.021Z,100779.84
2023-03-26T06:48:18.755Z,100761.91
2023-03-26T06:53:42.458Z,100754.59
2023-03-26T06:59:04.669Z,100758.31
2023-03-26T07:04:27.404Z,100744.50
2023-03-26T07:09:48.800Z,100742.69
2023-03-26T07:15:11.756Z,100732.06
2023-03-26T07:20:32.849Z,100725.59
2023-03-26T07:25:35.711Z,100705.13
2023-03-26T07:31:23.481Z,100698.00
2023-03-26T07:36:57.312Z,100688.00
2023-03-26T07:42:31.610Z,100676.06
2023-03-26T07:47:54.023Z,100665.63
2023-03-26T07:53:17.304Z,100670.44
2023-03-26T07:58:54.129Z,100659.41
2023-03-26T08:04:43.684Z,100642.25
2023-03-26T08:10:24.043Z,100639.69
2023-03-26T08:15:45.444Z,100632.94
2023-03-26T08:20:54.983Z,100623.94
2023-03-26T08:26:10.782Z,100632.63
2023-03-26T08:31:15.656Z,100622.91
2023-03-26T08:36:18.130Z,100621.22
2023-03-26T08:41:53.460Z,100611.16
2023-03-26T08:47:04.616Z,100611.22
2023-03-26T08:52:28.837Z,100602.41
2023-03-26T08:57:56.923Z,100602.53
2023-03-26T09:03:17.750Z,100590.88
2023-03-26T09:08:54.266Z,100589.91
2023-03-26T09:14:15.276Z,100580.00
2023-03-26T09:19:32.626Z,100567.50
2023-03-26T09:24:52.271Z,100568.66
2023-03-26T09:30:01.074Z,100557.47
2023-03-26T09:35:05.838Z,100550.97
2023-03-26T09:40:29.671Z,100543.41
2023-03-26T09:45:38.233Z,100535.53
2023-03-26T09:51:09.989Z,100523.81
2023-03-26T09:56:40.370Z,100529.91
2023-03-26T10:01:55.105Z,100525.63
2023-03-26T10:07:06.385Z,100508.75
2023-03-26T10:12:36.928Z,100504.19
2023-03-26T10:17:48.719Z,100497.34
2023-03-26T10:23:03.364Z,100490.13
2023-03-26T10:28:17.748Z,100485.28
2023-03-26T10:33:48.060Z,100488.16
2023-03-26T10:39:37.368Z,100480.84
2023-03-26T10:44:53.913Z,100485.72
2023-03-26T10:50:46.968Z,100477.59
2023-03-26T10:56:00.024Z,100463.78
2023-03-26T11:01:25.193Z,100452.38
2023-03-26T11:06:32.363Z,100449.53
2023-03-26T11:11:46.374Z,100457.25
2023-03-26T11:16:58.683Z,100441.78
2023-03-26T11:22:11.495Z,100434.09
2023-03-26T11:27:26.516Z,100427.19
2023-03-26T11:32:43.174Z,100423.91
2023-03-26T11:37:53.889Z,100421.44
2023-03-26T11:43:01.867Z,100418.56
2023-03-26T11:48:19.472Z,100404.38
2023-03-26T11:53:29.364Z,100396.28
2023-03-26T11:58:41.606Z,100390.19
2023-03-26T12:03:55.730Z,100380.44
2023-03-26T12:08:58.119Z,100368.25
2023-03-26T12:14:05.825Z,100366.63
2023-03-26T12:19:20.382Z,100356.50
2023-03-26T12:24:33.805Z,100359.75
2023-03-26T12:29:36.385Z,100341.84
2023-03-26T12:34:39.919Z,100336.19
2023-03-26T12:40:06.601Z,100341.84
2023-03-26T12:45:07.115Z,100326.84
2023-03-26T12:50:14.891Z,100324.34
2023-03-26T12:55:56.874Z,100321.50
2023-03-26T13:01:21.464Z,100313.78
2023-03-26T13:06:59.174Z,100306.84
2023-03-26T13:12:21.468Z,100302.38
2023-03-26T13:17:51.548Z,100293.47
2023-03-26T13:22:59.906Z,100296.25
2023-03-26T13:28:12.355Z,100282.88
2023-03-26T13:33:43.731Z,100274.75
2023-03-26T13:39:33.618Z,100265.84
2023-03-26T13:45:14.959Z,100259.72
2023-03-26T13:50:29.362Z,100246.38
2023-03-26T13:55:40.435Z,100244.72
2023-03-26T14:01:04.284Z,100232.16
2023-03-26T14:06:24.773Z,100229.66
2023-03-26T14:11:48.132Z,100221.16
2023-03-26T14:17:03.881Z,100216.59
2023-03-26T14:22:41.501Z,100210.44
2023-03-26T14:27:54.592Z,100209.16
2023-03-26T14:33:34.286Z,100204.59
2023-03-26T14:39:00.103Z,100196.91
2023-03-26T14:44:47.673Z,100184.25
2023-03-26T14:50:31.751Z,100174.84
2023-03-26T14:56:13.186Z,100158.91
2023-03-26T15:01:26.925Z,100154.78
2023-03-26T15:06:47.407Z,100139.69
2023-03-26T15:12:12.904Z,100137.16
2023-03-26T15:17:40.931Z,100121.63
2023-03-26T15:23:08.069Z,100117.41
2023-03-26T15:28:51.633Z,100099.00
2023-03-26T15:34:20.229Z,100092.34
2023-03-26T15:40:08.243Z,100088.91
2023-03-26T15:45:42.405Z,100079.03
2023-03-26T15:50:56.533Z,100071.84
2023-03-26T15:56:11.844Z,100069.88
2023-03-26T16:01:32.690Z,100067.56
2023-03-26T16:06:50.493Z,100067.28
2023-03-26T16:11:59.149Z,100068.44
2023-03-26T16:17:05.658Z,100069.91
2023-03-26T16:22:15.652Z,100070.22
2023-03-26T16:27:32.430Z,100062.13
2023-03-26T16:32:36.622Z,100067.13
2023-03-26T16:37:46.321Z,100076.41
2023-03-26T16:43:22.863Z,100080.34
2023-03-26T16:49:21.785Z,100070.06
2023-03-26T16:54:27.301Z,100068.69
2023-03-26T17:00:05.382Z,100065.56
2023-03-26T17:05:24.976Z,100080.41
2023-03-26T17:11:02.595Z,100075.66
2023-03-26T17:16:27.754Z,100074.72
2023-03-26T17:21:49.430Z,100074.09
2023-03-26T17:27:28.427Z,100067.50
2023-03-26T17:32:56.223Z,100062.09
2023-03-26T17:37:58.989Z,100070.44
2023-03-26T17:43:04.745Z,100056.47
2023-03-26T17:48:16.984Z,100071.28
2023-03-26T17:53:40.618Z,100054.94
2023-03-26T17:58:55.003Z,100052.44
2023-03-26T18:04:00.942Z,100047.09
2023-03-26T18:09:11.011Z,100032.13
2023-03-26T18:14:19.343Z,100022.06
2023-03-26T18:19:23.329Z,100007.56
2023-03-26T18:24:31.609Z,100006.72
2023-03-26T18:29:36.075Z,99999.06
2023-03-26T18:34:45.829Z,100000.78
2023-03-26T18:40:07.778Z,99997.91
2023-03-26T18:45:23.836Z,100002.38
2023-03-26T18:50:36.109Z,100009.56
2023-03-26T18:55:39.869Z,100019.53
2023-03-26T19:00:43.096Z,100024.53
2023-03-26T19:05:45.807Z,100014.75
2023-03-26T19:10:51.029Z,100000.69
2023-03-26T19:15:57.009Z,99996.72
2023-03-26T19:21:03.663Z,99985.31
2023-03-26T19:26:09.615Z,99989.75
2023-03-26T19:31:26.251Z,99997.75
2023-03-26T19:36:32.317Z,99979.22
2023-03-26T19:41:38.910Z,99965.09
2023-03-26T19:46:53.993Z,99954.81
2023-03-26T19:52:33.358Z,99954.97
2023-03-26T19:57:36.849Z,99949.47
2023-03-26T20:02:40.039Z,99952.19
2023-03-26T20:07:45.035Z,99943.97
2023-03-26T20:12:47.500Z,99939.47
2023-03-26T20:17:52.721Z,99939.94
2023-03-26T20:22:55.597Z,99929.78
2023-03-26T20:27:58.905Z,99915.44
2023-03-26T20:33:12.707Z,99914.78
2023-03-26T20:38:17.069Z,99899.59
2023-03-26T20:43:22.016Z,99901.22
2023-03-26T20:48:26.831Z,99891.25
2023-03-26T20:53:30.724Z,99888.38
2023-03-26T20:58:33.440Z,99885.03
2023-03-26T21:03:35.868Z,99885.38
2023-03-26T21:08:38.736Z,99882.56
2023-03-26T21:14:00.201Z,99881.50
2023-03-26T21:19:03.328Z,99856.34
2023-03-26T21:24:47.071Z,99864.31
2023-03-26T21:29:49.754Z,99861.34
2023-03-26T21:40:00.312Z,99834.72
2023-03-26T21:45:06.069Z,99832.38
2023-03-26T21:50:10.403Z,99838.81
2023-03-26T21:55:18.670Z,99848.66
2023-03-26T22:00:33.515Z,99831.94
2023-03-26T22:06:03.815Z,99858.25
2023-03-26T22:11:07.989Z,99835.09
2023-03-26T22:16:10.967Z,99823.72
2023-03-26T22:21:14.377Z,99829.22
2023-03-26T22:26:17.076Z,99816.47
2023-03-26T22:31:19.699Z,99813.25
2023-03-26T22:36:23.828Z,99821.72
2023-03-26T22:41:26.800Z,99822.69
2023-03-26T22:46:31.241Z,99825.47
2023-03-26T22:51:33.473Z,99828.03
2023-03-26T22:56:36.613Z,99839.69
2023-03-26T23:01:39.389Z,99827.31
2023-03-26T23:06:41.889Z,99820.44
2023-03-26T23:11:44.304Z,99819.88
2023-03-26T23:16:46.701Z,99836.94
2023-03-26T23:21:49.138Z,99841.25
2023-03-26T23:26:51.566Z,99836.72
2023-03-26T23:31:54.811Z,99827.84
2023-03-26T23:36:58.261Z,99845.91
2023-03-26T23:42:00.687Z,99841.59
2023-03-26T23:47:03.112Z,99849.91
2023-03-26T23:52:05.842Z,99869.41
2023-03-26T23:57:09.191Z,99844.25
